Time;durP1;ratioP1;P1;durP2;ratioP2;P2;SDS_P1;SDS_P2;PMS_P1;PMS_P2;Temp;Humidity;BMP_temperature;BMP_pressure;BME280_temperature;BME280_humidity;BME280_pressure;Samples;Min_cycle;Max_cycle;Signal;HPM_P1;HPM_P2
2022/05/11 00:00:04;;;;;;;2.92;1.67;;;;;;;;;;5008724;28;20034;-81
2022/05/11 00:02:30;;;;;;;2.95;1.70;;;;;;;;;;5008617;28;20023;-80
2022/05/11 00:04:55;;;;;;;3.30;1.83;;;;;;;;;;5025071;28;20046;-81
2022/05/11 00:07:21;;;;;;;4.97;1.98;;;;;;;;;;5008181;28;20042;-80
2022/05/11 00:09:47;;;;;;;3.33;1.75;;;;;;;;;;5011034;28;20068;-81
2022/05/11 00:12:12;;;;;;;4.93;2.30;;;;;;;;;;5011483;28;20084;-80
2022/05/11 00:14:38;;;;;;;3.67;1.48;;;;;;;;;;4994994;28;20095;-81
2022/05/11 00:17:04;;;;;;;4.18;1.67;;;;;;;;;;4979012;28;20462;-81
2022/05/11 00:19:29;;;;;;;2.97;1.50;;;;;;;;;;4979307;28;20053;-81
2022/05/11 00:21:55;;;;;;;3.65;2.25;;;;;;;;;;4979099;28;20116;-81
2022/05/11 00:24:20;;;;;;;6.38;2.50;;;;;;;;;;5011423;28;20103;-81
2022/05/11 00:26:45;;;;;;;3.55;1.85;;;;;;;;;;5011445;28;20519;-80
2022/05/11 00:29:11;;;;;;;4.63;2.03;;;;;;;;;;5011518;28;20076;-81
2022/05/11 00:31:36;;;;;;;4.55;1.85;;;;;;;;;;4995398;28;20042;-80
2022/05/11 00:34:02;;;;;;;3.03;1.67;;;;;;;;;;4979133;28;20040;-81
2022/05/11 00:36:27;;;;;;;3.47;2.08;;;;;;;;;;5011171;28;20037;-81
2022/05/11 00:38:53;;;;;;;3.05;1.80;;;;;;;;;;5010970;28;20381;-81
2022/05/11 00:41:18;;;;;;;3.03;1.83;;;;;;;;;;4994435;28;20050;-81
2022/05/11 00:43:52;;;;;;;2.90;1.83;;;;;;;;;;4995170;28;20038;-81
2022/05/11 00:46:36;;;;;;;3.60;1.65;;;;;;;;;;4995030;28;20042;-81
2022/05/11 00:52:04;;;;;;;3.65;1.92;;;;;;;;;;4997163;28;20077;-81
2022/05/11 00:54:29;;;;;;;3.33;1.58;;;;;;;;;;5025721;28;20033;-81
2022/05/11 00:56:57;;;;;;;3.70;2.15;;;;;;;;;;4994471;28;20034;-81
2022/05/11 00:59:25;;;;;;;3.10;1.92;;;;;;;;;;5027934;28;20034;-80
2022/05/11 01:01:51;;;;;;;2.55;1.60;;;;;;;;;;5027714;28;20037;-80
2022/05/11 01:04:18;;;;;;;4.10;1.80;;;;;;;;;;5011647;28;20045;-80
2022/05/11 01:06:43;;;;;;;2.53;1.63;;;;;;;;;;4974672;28;20088;-81
2022/05/11 01:09:10;;;;;;;3.90;1.95;;;;;;;;;;4991444;28;20034;-80
2022/05/11 01:11:41;;;;;;;4.38;2.45;;;;;;;;;;4991240;28;20077;-81
2022/05/11 01:14:07;;;;;;;3.70;1.90;;;;;;;;;;5003551;28;20065;-80
2022/05/11 01:16:33;;;;;;;4.03;1.67;;;;;;;;;;4994629;28;20104;-81
2022/05/11 01:18:58;;;;;;;3.17;1.58;;;;;;;;;;4994131;28;20105;-81
2022/05/11 01:21:29;;;;;;;8.40;2.40;;;;;;;;;;4978198;28;20069;-81
2022/05/11 01:24:00;;;;;;;3.25;1.60;;;;;;;;;;5010885;28;20096;-82
2022/05/11 01:26:26;;;;;;;2.90;1.50;;;;;;;;;;5010589;28;20034;-83
2022/05/11 01:28:54;;;;;;;3.15;1.70;;;;;;;;;;4994263;28;20500;-82
2022/05/11 01:31:19;;;;;;;4.10;1.77;;;;;;;;;;4994634;28;20030;-81
2022/05/11 01:33:48;;;;;;;3.47;2.17;;;;;;;;;;5010865;28;20401;-82
2022/05/11 01:36:34;;;;;;;4.07;2.00;;;;;;;;;;4978189;28;20559;-81
2022/05/11 01:39:03;;;;;;;5.93;1.98;;;;;;;;;;5010240;28;20042;-81
2022/05/11 01:41:39;;;;;;;4.07;1.95;;;;;;;;;;4990771;28;20080;-80
2022/05/11 01:44:09;;;;;;;4.10;1.85;;;;;;;;;;4974639;28;20121;-81
2022/05/11 01:46:35;;;;;;;5.28;1.80;;;;;;;;;;4975074;28;20484;-81
2022/05/11 01:49:00;;;;;;;4.20;2.22;;;;;;;;;;5007236;28;20042;-80
2022/05/11 01:51:26;;;;;;;3.70;1.85;;;;;;;;;;5007832;28;20050;-81
2022/05/11 01:53:51;;;;;;;3.92;2.00;;;;;;;;;;5010577;28;20037;-81
2022/05/11 01:56:19;;;;;;;5.18;2.30;;;;;;;;;;5026432;28;20045;-80
2022/05/11 01:58:44;;;;;;;4.05;2.35;;;;;;;;;;4990871;28;20505;-80
2022/05/11 02:01:10;;;;;;;4.47;2.97;;;;;;;;;;4991047;28;20117;-81
2022/05/11 02:03:35;;;;;;;3.28;1.70;;;;;;;;;;5010763;28;20044;-81
2022/05/11 02:08:46;;;;;;;6.20;2.38;;;;;;;;;;5008719;28;20066;-80
2022/05/11 02:11:12;;;;;;;3.70;1.70;;;;;;;;;;4994204;28;20495;-80
2022/05/11 02:13:38;;;;;;;3.90;1.83;;;;;;;;;;4997713;28;20029;-81
2022/05/11 02:16:04;;;;;;;4.68;2.25;;;;;;;;;;5013909;28;20095;-80
2022/05/11 02:18:29;;;;;;;5.20;2.00;;;;;;;;;;4997156;28;20045;-81
2022/05/11 02:20:55;;;;;;;3.70;2.30;;;;;;;;;;4997768;28;20041;-81
2022/05/11 02:23:21;;;;;;;3.80;2.42;;;;;;;;;;4997655;28;20041;-81
2022/05/11 02:25:47;;;;;;;3.83;2.22;;;;;;;;;;5013535;28;20448;-81
2022/05/11 02:28:13;;;;;;;3.35;2.15;;;;;;;;;;4997428;28;20065;-81
2022/05/11 02:30:39;;;;;;;5.53;2.50;;;;;;;;;;4981140;28;20034;-81
2022/05/11 02:33:05;;;;;;;4.38;2.63;;;;;;;;;;4980995;28;20037;-81
2022/05/11 02:35:31;;;;;;;5.32;2.30;;;;;;;;;;4997466;28;20113;-80
2022/05/11 02:37:59;;;;;;;5.45;2.13;;;;;;;;;;4980723;28;20037;-80
2022/05/11 02:40:30;;;;;;;3.45;1.83;;;;;;;;;;4997321;28;20167;-81
2022/05/11 02:42:55;;;;;;;4.70;2.33;;;;;;;;;;4997440;28;20058;-80
2022/05/11 02:45:21;;;;;;;3.72;1.88;;;;;;;;;;4980742;28;20053;-81
2022/05/11 02:47:48;;;;;;;4.35;2.10;;;;;;;;;;4980684;28;20112;-81
2022/05/11 02:50:15;;;;;;;3.92;2.15;;;;;;;;;;4980671;28;20085;-80
2022/05/11 02:52:41;;;;;;;4.82;2.20;;;;;;;;;;5007834;28;20107;-81
2022/05/11 02:55:07;;;;;;;4.65;2.00;;;;;;;;;;5009992;28;20491;-80
2022/05/11 02:57:32;;;;;;;5.05;2.42;;;;;;;;;;5029335;28;20069;-81
2022/05/11 02:59:58;;;;;;;4.22;2.42;;;;;;;;;;5013132;28;20034;-80
2022/05/11 03:02:24;;;;;;;5.25;2.85;;;;;;;;;;5012988;28;20038;-80
2022/05/11 03:04:50;;;;;;;3.42;2.13;;;;;;;;;;5029686;28;20159;-81
2022/05/11 03:07:15;;;;;;;3.63;2.05;;;;;;;;;;4980129;28;20454;-80
2022/05/11 03:09:41;;;;;;;3.78;1.90;;;;;;;;;;4996641;28;20129;-80
2022/05/11 03:12:07;;;;;;;4.47;2.28;;;;;;;;;;5012680;28;20496;-81
2022/05/11 03:14:32;;;;;;;3.67;1.90;;;;;;;;;;4995616;28;20038;-80
2022/05/11 03:16:58;;;;;;;3.60;1.80;;;;;;;;;;5012280;28;20120;-81
2022/05/11 03:19:23;;;;;;;4.72;2.30;;;;;;;;;;4996374;28;20064;-81
2022/05/11 03:21:50;;;;;;;5.65;2.38;;;;;;;;;;4979972;28;20050;-81
2022/05/11 03:24:16;;;;;;;4.82;2.03;;;;;;;;;;4996786;28;20033;-81
2022/05/11 03:26:42;;;;;;;4.05;2.25;;;;;;;;;;4979947;28;20469;-81
2022/05/11 03:29:07;;;;;;;3.30;2.15;;;;;;;;;;5012544;28;20113;-81
2022/05/11 03:31:33;;;;;;;4.35;2.20;;;;;;;;;;4995953;28;20045;-81
2022/05/11 03:36:42;;;;;;;3.17;1.95;;;;;;;;;;5012308;28;20140;-81
2022/05/11 03:39:08;;;;;;;4.88;2.08;;;;;;;;;;4979885;28;20500;-81
2022/05/11 03:41:33;;;;;;;4.65;2.55;;;;;;;;;;4995846;28;20067;-80
2022/05/11 03:43:59;;;;;;;3.42;1.70;;;;;;;;;;4995975;28;20030;-81
2022/05/11 03:46:24;;;;;;;3.08;2.35;;;;;;;;;;4979101;28;20172;-81
2022/05/11 03:48:50;;;;;;;3.95;1.92;;;;;;;;;;5012189;28;20065;-80
2022/05/11 03:51:15;;;;;;;3.13;2.00;;;;;;;;;;5011939;28;20473;-81
2022/05/11 03:53:40;;;;;;;3.08;1.90;;;;;;;;;;5031489;28;20037;-81
2022/05/11 03:56:06;;;;;;;4.55;2.00;;;;;;;;;;4984507;28;20042;-81
2022/05/11 03:58:31;;;;;;;3.83;2.45;;;;;;;;;;5028646;28;20103;-81
2022/05/11 04:00:57;;;;;;;2.92;1.98;;;;;;;;;;5028244;28;20038;-80
2022/05/11 04:03:22;;;;;;;3.38;2.15;;;;;;;;;;5011787;28;20046;-80
2022/05/11 04:05:48;;;;;;;3.30;2.00;;;;;;;;;;4995738;28;20559;-81
2022/05/11 04:08:13;;;;;;;5.93;2.53;;;;;;;;;;5028402;28;20038;-81
2022/05/11 04:10:39;;;;;;;3.13;1.98;;;;;;;;;;5011722;28;20394;-81
2022/05/11 04:13:04;;;;;;;4.32;1.80;;;;;;;;;;5027627;28;20053;-81
2022/05/11 04:15:30;;;;;;;3.42;1.70;;;;;;;;;;4979003;28;20040;-80
2022/05/11 04:17:56;;;;;;;3.13;1.50;;;;;;;;;;5011423;28;20038;-80
2022/05/11 04:20:21;;;;;;;2.95;1.92;;;;;;;;;;4995552;28;20050;-81
2022/05/11 04:22:47;;;;;;;2.65;1.80;;;;;;;;;;4995101;28;20042;-81
2022/05/11 04:25:15;;;;;;;3.80;1.73;;;;;;;;;;4995246;28;20381;-81
2022/05/11 04:27:45;;;;;;;3.47;1.58;;;;;;;;;;4995468;28;20034;-81
2022/05/11 04:30:12;;;;;;;3.13;1.85;;;;;;;;;;4979227;28;20048;-81
2022/05/11 04:32:38;;;;;;;3.28;1.88;;;;;;;;;;4978999;28;20396;-81
2022/05/11 04:35:04;;;;;;;4.47;2.22;;;;;;;;;;4995066;28;20050;-81
2022/05/11 04:37:29;;;;;;;2.88;1.90;;;;;;;;;;4994661;28;20116;-81
2022/05/11 04:39:55;;;;;;;3.92;2.20;;;;;;;;;;4993931;28;20114;-81
2022/05/11 04:42:20;;;;;;;3.83;1.73;;;;;;;;;;4978365;28;20045;-81
2022/05/11 04:44:46;;;;;;;3.05;1.80;;;;;;;;;;4994479;28;20037;-82
2022/05/11 04:47:13;;;;;;;3.72;1.77;;;;;;;;;;4978489;28;20038;-81
2022/05/11 04:49:38;;;;;;;4.28;1.70;;;;;;;;;;4978524;28;20041;-83
2022/05/11 04:52:09;;;;;;;2.67;1.63;;;;;;;;;;4994625;28;20451;-82
2022/05/11 04:54:38;;;;;;;3.67;1.77;;;;;;;;;;5011806;28;20025;-81
2022/05/11 04:57:04;;;;;;;3.65;1.80;;;;;;;;;;4994260;28;20068;-82
2022/05/11 04:59:30;;;;;;;2.20;1.60;;;;;;;;;;5010823;28;20038;-82
2022/05/11 05:01:57;;;;;;;3.05;1.52;;;;;;;;;;4994604;28;20088;-81
2022/05/11 05:04:22;;;;;;;4.38;1.90;;;;;;;;;;5011399;28;20042;-81
2022/05/11 05:06:48;;;;;;;2.72;1.25;;;;;;;;;;5010566;28;20071;-81
2022/05/11 05:09:13;;;;;;;2.97;1.50;;;;;;;;;;5027435;28;20034;-81
2022/05/11 05:11:39;;;;;;;3.65;1.55;;;;;;;;;;5010349;28;20041;-81
2022/05/11 05:14:05;;;;;;;4.50;1.70;;;;;;;;;;5026913;28;20046;-82
2022/05/11 05:16:32;;;;;;;3.00;1.27;;;;;;;;;;5010239;28;20042;-83
2022/05/11 05:18:58;;;;;;;3.22;1.65;;;;;;;;;;4978061;28;20041;-83
2022/05/11 05:21:24;;;;;;;2.92;1.73;;;;;;;;;;4978084;28;20084;-83
2022/05/11 05:23:49;;;;;;;4.45;2.05;;;;;;;;;;4978305;28;20044;-83
2022/05/11 05:26:15;;;;;;;3.13;1.40;;;;;;;;;;4993842;28;20038;-82
2022/05/11 05:31:26;;;;;;;11.13;1.98;;;;;;;;;;4998165;28;20057;-80
2022/05/11 05:33:58;;;;;;;4.68;1.98;;;;;;;;;;4991416;28;20034;-82
2022/05/11 05:36:23;;;;;;;5.93;1.70;;;;;;;;;;4975172;28;20472;-82
2022/05/11 05:38:49;;;;;;;4.68;1.90;;;;;;;;;;4994947;28;20041;-82
2022/05/11 05:41:14;;;;;;;8.63;1.70;;;;;;;;;;4994941;28;20029;-82
2022/05/11 05:43:40;;;;;;;6.70;2.30;;;;;;;;;;4981193;28;20040;-82
2022/05/11 05:46:06;;;;;;;7.15;2.28;;;;;;;;;;4997526;28;20444;-82
2022/05/11 05:48:31;;;;;;;4.55;2.15;;;;;;;;;;4981834;28;20084;-82
2022/05/11 05:51:08;;;;;;;3.25;1.60;;;;;;;;;;4981531;28;20045;-82
2022/05/11 05:53:33;;;;;;;5.35;2.10;;;;;;;;;;4977686;28;20037;-82
2022/05/11 05:55:59;;;;;;;3.70;1.67;;;;;;;;;;5023868;28;20109;-82
2022/05/11 05:58:25;;;;;;;5.85;2.67;;;;;;;;;;5030798;28;20121;-82
2022/05/11 06:00:51;;;;;;;4.90;1.90;;;;;;;;;;5030755;28;20033;-81
2022/05/11 06:03:20;;;;;;;5.60;1.77;;;;;;;;;;5030534;28;20030;-82
2022/05/11 06:05:45;;;;;;;4.00;1.67;;;;;;;;;;5030500;28;20022;-82
2022/05/11 06:08:15;;;;;;;3.97;1.73;;;;;;;;;;5014065;28;20425;-82
2022/05/11 06:10:40;;;;;;;5.20;2.20;;;;;;;;;;5030037;28;20033;-81
2022/05/11 06:13:07;;;;;;;3.08;2.13;;;;;;;;;;5030614;28;20033;-82
2022/05/11 06:15:32;;;;;;;7.40;2.72;;;;;;;;;;4981482;28;20058;-82
2022/05/11 06:17:57;;;;;;;4.72;2.08;;;;;;;;;;5013681;28;20408;-82
2022/05/11 06:20:23;;;;;;;6.15;1.92;;;;;;;;;;5013751;28;20053;-82
2022/05/11 06:22:50;;;;;;;4.30;2.03;;;;;;;;;;5013812;28;20084;-82
2022/05/11 06:25:18;;;;;;;3.38;1.90;;;;;;;;;;4988803;28;20041;-82
2022/05/11 06:27:44;;;;;;;6.10;1.83;;;;;;;;;;4994724;28;20128;-81
2022/05/11 06:30:10;;;;;;;6.10;2.13;;;;;;;;;;4993899;28;20042;-82
2022/05/11 06:32:36;;;;;;;4.18;2.25;;;;;;;;;;4994400;28;20045;-82
2022/05/11 06:35:01;;;;;;;4.68;2.20;;;;;;;;;;4994115;28;20046;-82
2022/05/11 06:37:27;;;;;;;4.03;2.35;;;;;;;;;;4994044;28;20039;-82
2022/05/11 06:39:53;;;;;;;5.50;2.22;;;;;;;;;;5000558;28;20412;-82
2022/05/11 06:42:20;;;;;;;4.43;1.80;;;;;;;;;;4980718;28;20763;-82
2022/05/11 06:44:45;;;;;;;4.70;2.42;;;;;;;;;;4981434;28;20041;-82
2022/05/11 06:47:11;;;;;;;4.22;2.00;;;;;;;;;;4996872;28;20033;-82
2022/05/11 06:49:36;;;;;;;3.38;1.55;;;;;;;;;;4980593;28;20876;-82
2022/05/11 06:52:02;;;;;;;5.85;2.28;;;;;;;;;;4977478;28;20110;-82
2022/05/11 06:59:56;;;;;;;4.35;2.40;;;;;;;;;;5032504;28;20399;-82
2022/05/11 07:02:21;;;;;;;6.03;1.88;;;;;;;;;;4997106;28;20026;-82
2022/05/11 07:04:48;;;;;;;4.97;2.13;;;;;;;;;;5012780;28;20504;-82
2022/05/11 07:07:14;;;;;;;5.57;2.50;;;;;;;;;;5029532;28;20091;-82
2022/05/11 07:09:39;;;;;;;6.03;2.03;;;;;;;;;;5029073;28;20038;-82
2022/05/11 07:12:17;;;;;;;3.35;1.55;;;;;;;;;;5029290;28;20053;-82
2022/05/11 07:14:47;;;;;;;4.93;1.90;;;;;;;;;;5031228;28;20093;-82
2022/05/11 07:17:30;;;;;;;4.20;1.90;;;;;;;;;;4980757;28;20404;-82
2022/05/11 07:19:57;;;;;;;4.43;1.77;;;;;;;;;;4996269;28;20049;-82
2022/05/11 07:22:23;;;;;;;3.17;1.65;;;;;;;;;;5012857;28;20034;-82
2022/05/11 07:24:48;;;;;;;4.07;1.98;;;;;;;;;;5012234;28;20531;-82
2022/05/11 07:27:14;;;;;;;3.15;1.50;;;;;;;;;;4980152;28;20068;-82
2022/05/11 07:29:39;;;;;;;3.88;1.52;;;;;;;;;;4996223;28;20037;-82
2022/05/11 07:32:06;;;;;;;3.53;1.60;;;;;;;;;;4979766;28;20037;-82
2022/05/11 07:34:31;;;;;;;3.78;1.50;;;;;;;;;;5012372;28;20040;-83
2022/05/11 07:36:57;;;;;;;5.20;1.40;;;;;;;;;;4979969;28;20033;-82
2022/05/11 07:39:23;;;;;;;2.38;1.35;;;;;;;;;;4979750;28;20030;-82
2022/05/11 07:41:49;;;;;;;3.83;1.23;;;;;;;;;;4979724;28;20124;-83
2022/05/11 07:44:15;;;;;;;2.88;1.42;;;;;;;;;;4979868;28;20038;-82
2022/05/11 07:46:42;;;;;;;4.20;1.35;;;;;;;;;;4979882;28;20516;-82
2022/05/11 07:49:07;;;;;;;3.08;1.30;;;;;;;;;;4995941;28;20045;-82
2022/05/11 07:51:35;;;;;;;3.22;1.63;;;;;;;;;;4979553;28;20046;-82
2022/05/11 07:54:00;;;;;;;2.58;1.10;;;;;;;;;;5012129;28;20034;-82
2022/05/11 08:01:54;;;;;;;2.78;1.00;;;;;;;;;;5012198;28;20038;-83
2022/05/11 08:04:19;;;;;;;2.67;0.75;;;;;;;;;;5028497;28;20519;-82
2022/05/11 08:06:46;;;;;;;1.45;0.75;;;;;;;;;;5027874;28;20045;-83
2022/05/11 08:09:13;;;;;;;3.20;1.10;;;;;;;;;;5028825;28;20034;-83
2022/05/11 08:11:39;;;;;;;3.47;1.52;;;;;;;;;;5028413;28;20295;-82
2022/05/11 08:14:04;;;;;;;3.10;1.30;;;;;;;;;;5025897;28;20704;-82
2022/05/11 08:16:30;;;;;;;3.42;1.23;;;;;;;;;;5011540;28;20064;-82
2022/05/11 08:18:55;;;;;;;2.95;1.00;;;;;;;;;;5011721;28;20045;-80
2022/05/11 08:21:21;;;;;;;1.88;1.20;;;;;;;;;;4979029;28;20049;-80
2022/05/11 08:23:47;;;;;;;2.97;0.88;;;;;;;;;;4979062;28;20041;-80
2022/05/11 08:26:12;;;;;;;4.18;1.15;;;;;;;;;;4978775;28;20037;-79
2022/05/11 08:28:38;;;;;;;3.38;1.27;;;;;;;;;;4995366;28;20499;-80
2022/05/11 08:33:47;;;;;;;4.03;1.33;;;;;;;;;;5011378;28;20061;-79
2022/05/11 08:36:18;;;;;;;2.22;0.90;;;;;;;;;;4978489;28;20113;-80
2022/05/11 08:38:45;;;;;;;3.47;1.00;;;;;;;;;;4995456;28;20034;-79
2022/05/11 08:41:32;;;;;;;4.05;0.70;;;;;;;;;;4994880;28;20045;-79
2022/05/11 08:44:07;;;;;;;1.42;0.70;;;;;;;;;;5011500;28;20098;-81
2022/05/11 08:46:55;;;;;;;1.95;0.90;;;;;;;;;;4979647;28;20065;-82
2022/05/11 08:49:42;;;;;;;3.85;1.10;;;;;;;;;;4996375;28;20087;-79
2022/05/11 08:52:22;;;;;;;4.45;1.10;;;;;;;;;;4994732;28;20041;-80
2022/05/11 08:54:49;;;;;;;3.60;1.05;;;;;;;;;;4978580;28;20041;-80
2022/05/11 08:57:17;;;;;;;2.97;1.00;;;;;;;;;;5027055;28;20034;-79
2022/05/11 08:59:43;;;;;;;2.38;0.90;;;;;;;;;;5027890;28;20030;-80
2022/05/11 09:02:19;;;;;;;3.78;0.98;;;;;;;;;;5027338;28;20389;-81
2022/05/11 09:04:50;;;;;;;2.20;1.13;;;;;;;;;;5027374;28;20048;-80
2022/05/11 09:07:15;;;;;;;3.45;1.38;;;;;;;;;;5003159;28;20038;-80
2022/05/11 09:09:41;;;;;;;5.63;0.88;;;;;;;;;;4991473;28;20045;-80
2022/05/11 09:12:07;;;;;;;2.60;0.85;;;;;;;;;;4990319;28;20045;-80
2022/05/11 09:14:47;;;;;;;2.60;1.15;;;;;;;;;;5007224;28;20052;-79
2022/05/11 09:17:34;;;;;;;2.75;1.02;;;;;;;;;;4978226;28;20037;-80
2022/05/11 09:20:16;;;;;;;1.77;0.90;;;;;;;;;;4994129;28;20045;-82
2022/05/11 09:22:43;;;;;;;;;;;;;;;;;;4995168;28;20052;-82
2022/05/11 09:25:41;;;;;;;2.60;0.80;;;;;;;;;;5027228;28;20331;-83
2022/05/11 09:28:18;;;;;;;2.75;1.13;;;;;;;;;;5014575;28;20052;-83
2022/05/11 09:31:03;;;;;;;5.32;1.35;;;;;;;;;;4994587;28;20077;-82
2022/05/11 09:33:33;;;;;;;2.38;0.90;;;;;;;;;;5024817;28;20419;-83
2022/05/11 09:36:02;;;;;;;2.78;0.90;;;;;;;;;;5026536;28;20034;-83
2022/05/11 09:38:35;;;;;;;5.10;1.65;;;;;;;;;;5010644;28;20038;-83
2022/05/11 09:41:18;;;;;;;2.42;1.15;;;;;;;;;;5026269;28;20044;-80
2022/05/11 09:43:53;;;;;;;3.90;1.15;;;;;;;;;;5043821;28;20030;-80
2022/05/11 09:46:32;;;;;;;3.88;1.45;;;;;;;;;;4995042;28;20053;-80
2022/05/11 09:49:35;;;;;;;4.43;1.25;;;;;;;;;;5010170;28;20084;-80
2022/05/11 09:52:02;;;;;;;4.03;1.38;;;;;;;;;;5002962;28;20116;-80
2022/05/11 09:54:28;;;;;;;3.42;1.08;;;;;;;;;;4996075;28;20030;-79
2022/05/11 09:57:00;;;;;;;3.55;1.20;;;;;;;;;;5010062;28;20482;-80
2022/05/11 09:59:39;;;;;;;3.25;1.20;;;;;;;;;;4993965;28;20030;-79
2022/05/11 10:02:25;;;;;;;4.32;1.42;;;;;;;;;;4993971;28;20045;-80
2022/05/11 10:05:06;;;;;;;3.65;1.40;;;;;;;;;;4993942;28;20045;-80
2022/05/11 10:08:01;;;;;;;3.53;1.85;;;;;;;;;;5010075;28;20057;-83
2022/05/11 10:10:33;;;;;;;4.30;1.65;;;;;;;;;;5001871;28;20069;-83
2022/05/11 10:13:12;;;;;;;2.83;1.45;;;;;;;;;;5027125;28;20649;-83
2022/05/11 10:24:31;;;;;;;2.67;1.52;;;;;;;;;;5013253;28;20040;-82
2022/05/11 10:27:25;;;;;;;2.20;1.27;;;;;;;;;;4998953;28;20034;-82
2022/05/11 10:30:23;;;;;;;3.15;1.25;;;;;;;;;;4981040;28;20508;-84
2022/05/11 10:32:57;;;;;;;3.47;1.25;;;;;;;;;;5013231;28;20026;-81
2022/05/11 10:35:36;;;;;;;2.50;1.27;;;;;;;;;;5030046;28;20055;-81
2022/05/11 10:38:25;;;;;;;2.47;1.30;;;;;;;;;;5013608;28;20026;-80
2022/05/11 10:41:17;;;;;;;3.33;1.50;;;;;;;;;;4999818;28;20030;-80
2022/05/11 10:43:56;;;;;;;2.47;1.65;;;;;;;;;;5013453;28;20512;-80
2022/05/11 10:46:39;;;;;;;2.70;1.40;;;;;;;;;;5013082;28;20049;-80
2022/05/11 10:49:29;;;;;;;2.67;1.73;;;;;;;;;;4997340;28;20083;-80
2022/05/11 10:52:27;;;;;;;4.75;1.85;;;;;;;;;;4997162;28;20492;-81
2022/05/11 10:55:14;;;;;;;5.13;2.00;;;;;;;;;;5013191;28;20033;-81
2022/05/11 10:58:17;;;;;;;8.30;2.45;;;;;;;;;;5012794;28;20042;-83
2022/05/11 11:00:45;;;;;;;3.55;1.83;;;;;;;;;;5013157;28;20045;-81
2022/05/11 11:03:39;;;;;;;6.25;2.00;;;;;;;;;;4997167;28;20046;-83
2022/05/11 11:09:22;;;;;;;22.83;3.97;;;;;;;;;;5045988;28;20095;-80
2022/05/11 11:12:12;;;;;;;57.60;8.77;;;;;;;;;;5012865;28;20034;-82
2022/05/11 11:14:38;;;;;;;52.25;6.50;;;;;;;;;;5029256;28;20040;-81
2022/05/11 11:17:05;;;;;;;17.17;4.95;;;;;;;;;;4996807;28;20056;-81
2022/05/11 11:19:31;;;;;;;10.32;3.42;;;;;;;;;;4996813;28;20049;-81
2022/05/11 11:21:56;;;;;;;14.73;5.07;;;;;;;;;;5000128;28;20034;-82
2022/05/11 11:24:27;;;;;;;10.57;4.32;;;;;;;;;;4995613;28;20129;-81
2022/05/11 11:27:00;;;;;;;9.30;3.88;;;;;;;;;;5028970;28;20153;-82
2022/05/11 11:29:36;;;;;;;8.10;3.67;;;;;;;;;;5016410;28;20042;-81
2022/05/11 11:32:08;;;;;;;7.00;3.22;;;;;;;;;;5012777;28;20025;-82
2022/05/11 11:34:35;;;;;;;9.13;2.95;;;;;;;;;;5011790;28;20091;-82
2022/05/11 11:37:24;;;;;;;6.00;2.33;;;;;;;;;;5012165;28;20030;-82
2022/05/11 11:39:57;;;;;;;10.38;2.80;;;;;;;;;;5019555;28;20052;-83
2022/05/11 11:42:42;;;;;;;8.68;2.33;;;;;;;;;;4980514;28;20048;-83
2022/05/11 11:45:27;;;;;;;8.88;2.60;;;;;;;;;;4963897;28;20061;-82
2022/05/11 11:48:15;;;;;;;6.18;2.72;;;;;;;;;;4997908;28;20559;-82
2022/05/11 11:50:54;;;;;;;5.30;2.55;;;;;;;;;;4980999;28;20492;-82
2022/05/11 11:53:39;;;;;;;5.25;2.40;;;;;;;;;;4996254;28;20041;-82
2022/05/11 11:56:22;;;;;;;4.55;2.33;;;;;;;;;;4981103;28;20038;-81
2022/05/11 11:58:49;;;;;;;6.90;2.33;;;;;;;;;;5012062;28;20026;-79
2022/05/11 12:01:15;;;;;;;6.80;1.92;;;;;;;;;;5028773;28;20037;-79
2022/05/11 12:03:52;;;;;;;5.90;2.00;;;;;;;;;;5011838;28;20034;-79
2022/05/11 12:17:39;;;;;;;8.20;4.03;;;;;;;;;;5011362;28;20492;-82
2022/05/11 12:20:18;;;;;;;6.47;2.70;;;;;;;;;;4996238;28;20038;-82
2022/05/11 12:22:55;;;;;;;6.88;2.05;;;;;;;;;;4992186;28;20580;-82
2022/05/11 12:25:31;;;;;;;3.85;1.55;;;;;;;;;;5008130;28;20041;-81
2022/05/11 12:27:59;;;;;;;4.22;1.70;;;;;;;;;;4991663;28;20089;-81
2022/05/11 12:30:25;;;;;;;4.97;2.13;;;;;;;;;;5021150;28;20124;-79
2022/05/11 12:32:57;;;;;;;6.20;1.80;;;;;;;;;;5008072;28;20034;-79
2022/05/11 12:35:34;;;;;;;4.13;1.42;;;;;;;;;;5007661;28;20050;-79
2022/05/11 12:38:03;;;;;;;5.10;1.48;;;;;;;;;;5023691;28;20046;-82
2022/05/11 12:40:30;;;;;;;4.72;1.48;;;;;;;;;;5027828;28;20068;-81
2022/05/11 12:42:57;;;;;;;3.45;1.10;;;;;;;;;;5027517;28;20069;-82
2022/05/11 12:45:42;;;;;;;5.13;1.00;;;;;;;;;;5011208;28;20030;-81
2022/05/11 12:48:08;;;;;;;7.15;1.60;;;;;;;;;;4978801;28;20038;-81
2022/05/11 12:50:36;;;;;;;3.97;1.13;;;;;;;;;;5011081;28;20057;-81
2022/05/11 12:53:07;;;;;;;5.70;1.17;;;;;;;;;;5011145;28;20124;-82
2022/05/11 12:55:35;;;;;;;3.20;1.10;;;;;;;;;;5011183;28;20092;-79
2022/05/11 12:58:00;;;;;;;5.65;1.20;;;;;;;;;;5027182;28;20096;-79
2022/05/11 13:00:27;;;;;;;15.20;1.88;;;;;;;;;;5027760;28;20033;-79
2022/05/11 13:02:52;;;;;;;9.95;2.25;;;;;;;;;;5027352;28;20038;-79
2022/05/11 13:05:19;;;;;;;8.15;1.95;;;;;;;;;;5027545;28;20041;-79
2022/05/11 13:07:51;;;;;;;6.03;1.30;;;;;;;;;;5011105;28;20096;-79
2022/05/11 13:10:22;;;;;;;3.35;1.08;;;;;;;;;;5028165;28;20029;-79
2022/05/11 13:12:56;;;;;;;8.38;2.13;;;;;;;;;;5010260;28;20168;-79
2022/05/11 13:15:40;;;;;;;4.88;1.33;;;;;;;;;;5010719;28;20030;-81
2022/05/11 13:18:08;;;;;;;6.50;1.13;;;;;;;;;;4993987;28;20054;-81
2022/05/11 13:20:39;;;;;;;8.80;3.80;;;;;;;;;;4994218;28;20037;-81
2022/05/11 13:23:39;;;;;;;8.40;4.53;;;;;;;;;;4994401;28;20048;-81
2022/05/11 13:26:31;;;;;;;7.80;2.67;;;;;;;;;;4993128;28;20053;-81
2022/05/11 13:29:08;;;;;;;5.83;2.10;;;;;;;;;;4996093;28;20053;-81
2022/05/11 13:31:34;;;;;;;3.92;1.65;;;;;;;;;;5010795;28;20041;-83
2022/05/11 13:34:01;;;;;;;5.47;2.55;;;;;;;;;;5026919;28;20068;-80
2022/05/11 13:36:28;;;;;;;7.63;2.05;;;;;;;;;;4994419;28;20053;-81
2022/05/11 13:39:25;;;;;;;3.08;1.35;;;;;;;;;;5010632;28;20112;-81
2022/05/11 13:41:53;;;;;;;7.07;1.65;;;;;;;;;;5006797;28;20110;-81
2022/05/11 13:44:35;;;;;;;4.55;1.75;;;;;;;;;;5022929;28;20030;-81
2022/05/11 13:49:46;;;;;;;7.22;2.38;;;;;;;;;;5037593;28;19972;-81
2022/05/11 13:52:34;;;;;;;5.95;2.00;;;;;;;;;;5040428;28;20572;-81
2022/05/11 13:54:59;;;;;;;4.03;1.60;;;;;;;;;;5022816;28;20030;-81
2022/05/11 13:57:34;;;;;;;8.27;2.08;;;;;;;;;;4990958;28;20057;-81
2022/05/11 14:00:16;;;;;;;7.88;1.95;;;;;;;;;;5027660;28;20208;-81
2022/05/11 14:02:56;;;;;;;12.60;1.80;;;;;;;;;;4994926;28;20038;-81
2022/05/11 14:05:22;;;;;;;11.50;2.17;;;;;;;;;;5010719;28;20034;-81
2022/05/11 14:07:47;;;;;;;5.60;1.70;;;;;;;;;;5010589;28;20033;-81
2022/05/11 14:10:13;;;;;;;9.00;2.35;;;;;;;;;;4994359;28;20038;-81
2022/05/11 14:12:39;;;;;;;8.27;2.13;;;;;;;;;;4993989;28;20557;-80
2022/05/11 14:15:05;;;;;;;6.82;2.90;;;;;;;;;;4997684;28;20140;-80
2022/05/11 14:17:33;;;;;;;10.88;2.05;;;;;;;;;;4981286;28;20049;-79
2022/05/11 14:19:59;;;;;;;6.43;1.48;;;;;;;;;;4981561;28;20116;-79
2022/05/11 14:22:24;;;;;;;7.28;1.70;;;;;;;;;;4981383;28;20124;-80
2022/05/11 14:24:50;;;;;;;11.05;1.98;;;;;;;;;;5013508;28;20128;-80
2022/05/11 14:27:18;;;;;;;9.30;1.95;;;;;;;;;;5030159;28;20117;-80
2022/05/11 14:29:47;;;;;;;4.97;1.75;;;;;;;;;;4978777;28;20121;-79
2022/05/11 14:32:21;;;;;;;5.65;1.75;;;;;;;;;;5026676;28;20488;-82
2022/05/11 14:34:46;;;;;;;4.65;1.65;;;;;;;;;;5010220;28;20042;-82
2022/05/11 14:37:11;;;;;;;9.23;2.08;;;;;;;;;;5009896;28;20097;-82
2022/05/11 14:39:37;;;;;;;4.43;1.52;;;;;;;;;;5026400;28;20097;-82
2022/05/11 14:42:02;;;;;;;3.50;1.48;;;;;;;;;;5025969;28;20108;-82
2022/05/11 14:44:28;;;;;;;6.03;1.85;;;;;;;;;;4993707;28;20489;-83
2022/05/11 14:46:54;;;;;;;4.38;2.03;;;;;;;;;;5009876;28;20045;-83
2022/05/11 14:49:20;;;;;;;5.95;1.60;;;;;;;;;;5009855;28;20041;-83
2022/05/11 14:51:45;;;;;;;7.53;1.33;;;;;;;;;;5026469;28;20093;-82
2022/05/11 14:54:11;;;;;;;6.13;1.38;;;;;;;;;;5026180;28;20033;-82
2022/05/11 14:56:37;;;;;;;4.95;1.92;;;;;;;;;;4979669;28;20055;-81
2022/05/11 15:01:56;;;;;;;4.18;1.20;;;;;;;;;;5018579;28;20038;-82
2022/05/11 15:04:43;;;;;;;7.38;4.07;;;;;;;;;;5013975;28;20476;-79
2022/05/11 15:07:13;;;;;;;11.10;7.20;;;;;;;;;;4996446;28;20029;-79
2022/05/11 15:09:38;;;;;;;6.47;2.67;;;;;;;;;;5013039;28;20049;-79
2022/05/11 15:14:54;;;;;;;6.03;2.03;;;;;;;;;;5023801;28;20065;-79
2022/05/11 15:17:22;;;;;;;5.03;2.63;;;;;;;;;;5027922;28;20064;-79
2022/05/11 15:19:48;;;;;;;7.68;3.00;;;;;;;;;;5011900;28;20053;-79
2022/05/11 15:22:14;;;;;;;8.95;3.20;;;;;;;;;;5012392;28;20117;-78
2022/05/11 15:24:39;;;;;;;5.40;3.10;;;;;;;;;;5029103;28;20065;-79
2022/05/11 15:27:05;;;;;;;8.70;3.45;;;;;;;;;;5011976;28;20131;-79
2022/05/11 15:29:30;;;;;;;6.88;3.72;;;;;;;;;;5012293;28;20404;-79
2022/05/11 15:31:56;;;;;;;4.75;2.50;;;;;;;;;;5028747;28;20492;-79
2022/05/11 15:34:22;;;;;;;6.82;3.55;;;;;;;;;;5012687;28;20053;-79
2022/05/11 15:36:47;;;;;;;6.45;3.28;;;;;;;;;;5011919;28;20563;-79
2022/05/11 15:39:13;;;;;;;7.57;3.45;;;;;;;;;;5029018;28;20049;-79
2022/05/11 15:41:39;;;;;;;4.43;2.92;;;;;;;;;;4995324;28;20823;-78
2022/05/11 15:44:05;;;;;;;6.50;2.40;;;;;;;;;;4980077;28;20053;-82
2022/05/11 15:46:32;;;;;;;4.97;2.70;;;;;;;;;;4979846;28;20411;-82
2022/05/11 15:48:57;;;;;;;4.90;2.40;;;;;;;;;;4979789;28;20049;-82
2022/05/11 15:51:23;;;;;;;14.90;3.97;;;;;;;;;;4995506;28;20038;-83
2022/05/11 15:53:48;;;;;;;11.63;3.08;;;;;;;;;;5009472;28;20075;-82